createdAt,value
2018-06-03T00:00:42.808Z,17.30
2018-06-03T00:01:42.857Z,17.30
2018-06-03T00:02:42.927Z,17.36
2018-06-03T00:03:42.981Z,17.44
2018-06-03T00:04:43.033Z,17.23
2018-06-03T00:05:43.060Z,17.26
2018-06-03T00:06:43.112Z,17.32
2018-06-03T00:07:43.163Z,17.25
2018-06-03T00:08:43.209Z,17.26
2018-06-03T00:09:43.291Z,17.18
2018-06-03T00:10:43.309Z,17.22
2018-06-03T00:11:43.364Z,17.20
2018-06-03T00:12:43.417Z,17.20
2018-06-03T00:13:43.462Z,17.17
2018-06-03T00:14:43.534Z,17.18
2018-06-03T00:15:43.625Z,17.13
2018-06-03T00:16:43.623Z,17.17
2018-06-03T00:17:43.662Z,17.17
2018-06-03T00:18:43.710Z,17.14
2018-06-03T00:19:43.787Z,17.10
2018-06-03T00:20:43.835Z,17.06
2018-06-03T00:21:43.863Z,16.95
2018-06-03T00:22:43.914Z,16.95
2018-06-03T00:23:43.962Z,16.96
2018-06-03T00:24:44.012Z,16.93
2018-06-03T00:25:44.086Z,16.86
2018-06-03T00:26:44.118Z,16.90
2018-06-03T00:27:44.163Z,16.92
2018-06-03T00:28:44.215Z,16.88
2018-06-03T00:29:44.264Z,16.88
2018-06-03T00:30:44.338Z,16.90
2018-06-03T00:31:44.385Z,16.88
2018-06-03T00:32:44.415Z,16.80
2018-06-03T00:33:44.470Z,16.83
2018-06-03T00:34:44.512Z,16.80
2018-06-03T00:35:44.565Z,16.68
2018-06-03T00:36:44.643Z,16.71
2018-06-03T00:37:44.665Z,16.73
2018-06-03T00:38:44.712Z,16.63
2018-06-03T00:39:44.763Z,16.65
2018-06-03T00:40:44.816Z,16.58
2018-06-03T00:41:44.886Z,16.58
2018-06-03T00:42:44.913Z,16.59
2018-06-03T00:43:44.965Z,16.62
2018-06-03T00:44:45.012Z,16.59
2018-06-03T00:45:45.066Z,16.58
2018-06-03T00:46:45.146Z,16.63
2018-06-03T00:47:45.166Z,16.65
2018-06-03T00:48:45.213Z,16.60
2018-06-03T00:49:45.262Z,16.60
2018-06-03T00:50:45.312Z,16.56
2018-06-03T00:51:45.405Z,16.50
2018-06-03T00:52:45.417Z,16.35
2018-06-03T00:53:45.463Z,16.26
2018-06-03T00:54:45.512Z,16.38
2018-06-03T00:55:45.561Z,16.37
2018-06-03T00:56:45.643Z,16.31
2018-06-03T00:57:45.685Z,16.34
2018-06-03T00:58:45.715Z,16.34
2018-06-03T00:59:45.761Z,16.33
2018-06-03T01:00:45.810Z,16.41
2018-06-03T01:01:45.861Z,16.44
2018-06-03T01:02:45.937Z,16.38
2018-06-03T01:03:45.964Z,16.33
2018-06-03T01:04:46.011Z,16.40
2018-06-03T01:05:46.061Z,16.34
2018-06-03T01:06:52.932Z,16.40
2018-06-03T01:07:46.184Z,16.41
2018-06-03T01:08:46.210Z,16.38
2018-06-03T01:09:46.260Z,16.41
2018-06-03T01:10:46.311Z,16.41
2018-06-03T01:11:46.364Z,16.42
2018-06-03T01:12:46.441Z,16.44
2018-06-03T01:13:46.467Z,16.42
2018-06-03T01:14:46.513Z,16.45
2018-06-03T01:15:46.576Z,16.41
2018-06-03T01:16:46.609Z,16.44
2018-06-03T01:17:46.689Z,16.41
2018-06-03T01:18:46.708Z,16.41
2018-06-03T01:19:46.757Z,16.41
2018-06-03T01:20:46.806Z,16.35
2018-06-03T01:21:46.858Z,16.40
2018-06-03T01:22:46.930Z,16.41
2018-06-03T01:23:46.979Z,16.40
2018-06-03T01:24:47.064Z,16.31
2018-06-03T01:25:47.059Z,16.38
2018-06-03T01:26:47.106Z,16.33
2018-06-03T01:27:47.157Z,16.30
2018-06-03T01:28:47.236Z,16.34
2018-06-03T01:29:47.256Z,16.31
2018-06-03T01:30:47.310Z,16.27
2018-06-03T01:31:47.355Z,16.27
2018-06-03T01:32:47.408Z,16.23
2018-06-03T01:33:47.498Z,16.20
2018-06-03T01:34:47.504Z,16.12
2018-06-03T01:35:47.556Z,16.22
2018-06-03T01:36:47.606Z,16.15
2018-06-03T01:37:47.656Z,16.23
2018-06-03T01:38:47.746Z,16.16
2018-06-03T01:39:47.755Z,16.15
2018-06-03T01:40:47.805Z,16.22
2018-06-03T01:41:47.853Z,16.15
2018-06-03T01:42:47.902Z,16.22
2018-06-03T01:43:47.983Z,16.25
2018-06-03T01:44:48.000Z,16.16
2018-06-03T01:45:48.054Z,16.30
2018-06-03T01:46:48.102Z,16.14
2018-06-03T01:47:48.150Z,16.20
2018-06-03T01:48:48.233Z,16.25
2018-06-03T01:49:48.252Z,16.25
2018-06-03T01:50:48.300Z,16.23
2018-06-03T01:51:48.352Z,16.15
2018-06-03T01:52:48.400Z,16.16
2018-06-03T01:53:48.475Z,16.15
2018-06-03T01:54:48.501Z,16.16
2018-06-03T01:55:48.549Z,16.16
2018-06-03T01:56:48.599Z,16.12
2018-06-03T01:57:48.651Z,16.07
2018-06-03T01:58:48.720Z,16.15
2018-06-03T01:59:48.747Z,16.18
2018-06-03T02:00:48.824Z,16.12
2018-06-03T02:01:48.846Z,16.18
2018-06-03T02:02:48.896Z,16.12
2018-06-03T02:03:48.945Z,15.99
2018-06-03T02:04:48.994Z,16.11
2018-06-03T02:05:49.081Z,16.12
2018-06-03T02:06:49.095Z,16.18
2018-06-03T02:07:49.144Z,16.14
2018-06-03T02:08:49.196Z,16.16
2018-06-03T02:09:49.246Z,16.07
2018-06-03T02:10:49.318Z,16.04
2018-06-03T02:11:49.342Z,16.03
2018-06-03T02:12:49.392Z,16.06
2018-06-03T02:13:49.443Z,16.06
2018-06-03T02:14:49.516Z,16.11
2018-06-03T02:15:49.541Z,16.06
2018-06-03T02:16:49.618Z,16.03
2018-06-03T02:17:49.643Z,16.01
2018-06-03T02:18:49.691Z,16.06
2018-06-03T02:19:49.741Z,15.96
2018-06-03T02:20:49.791Z,15.93
2018-06-03T02:21:49.861Z,15.85
2018-06-03T02:22:49.890Z,15.82
2018-06-03T02:23:49.940Z,15.82
2018-06-03T02:24:50.021Z,15.85
2018-06-03T02:25:50.037Z,15.81
2018-06-03T02:26:50.089Z,15.81
2018-06-03T02:27:50.141Z,15.70
2018-06-03T02:28:50.188Z,15.79
2018-06-03T02:29:50.286Z,15.66
2018-06-03T02:30:50.288Z,15.66
2018-06-03T02:31:50.339Z,15.68
2018-06-03T02:32:50.384Z,15.75
2018-06-03T02:33:50.436Z,15.72
2018-06-03T02:34:50.507Z,15.72
2018-06-03T02:35:50.533Z,15.75
2018-06-03T02:36:50.583Z,15.75
2018-06-03T02:37:50.663Z,15.82
2018-06-03T02:38:50.681Z,15.68
2018-06-03T02:39:50.734Z,15.68
2018-06-03T02:40:50.782Z,15.67
2018-06-03T02:41:50.834Z,15.70
2018-06-03T02:42:50.911Z,15.59
2018-06-03T02:43:50.931Z,15.68
2018-06-03T02:44:50.979Z,15.59
2018-06-03T02:45:51.053Z,15.60
2018-06-03T02:46:51.081Z,15.56
2018-06-03T02:47:51.131Z,15.60
2018-06-03T02:48:51.177Z,15.56
2018-06-03T02:49:51.230Z,15.54
2018-06-03T02:50:51.309Z,15.52
2018-06-03T02:51:51.328Z,15.48
2018-06-03T02:52:51.374Z,15.57
2018-06-03T02:53:51.424Z,15.51
2018-06-03T02:54:51.475Z,15.54
2018-06-03T02:55:51.554Z,15.56
2018-06-03T02:56:51.572Z,15.52
2018-06-03T02:57:51.621Z,15.56
2018-06-03T02:58:51.673Z,15.59
2018-06-03T02:59:51.722Z,15.48
2018-06-03T03:00:51.793Z,15.52
2018-06-03T03:01:51.824Z,15.43
2018-06-03T03:02:51.873Z,15.45
2018-06-03T03:03:51.922Z,15.41
2018-06-03T03:04:52.001Z,15.38
2018-06-03T03:05:52.020Z,15.38
2018-06-03T03:06:52.091Z,15.43
2018-06-03T03:07:52.117Z,15.43
2018-06-03T03:08:52.168Z,15.33
2018-06-03T03:09:52.217Z,15.31
2018-06-03T03:10:52.267Z,15.42
2018-06-03T03:11:52.339Z,15.41
2018-06-03T03:12:52.363Z,15.38
2018-06-03T03:13:52.414Z,15.42
2018-06-03T03:14:52.465Z,15.43
2018-06-03T03:15:52.514Z,15.38
2018-06-03T03:16:52.587Z,15.35
2018-06-03T03:17:52.613Z,15.30
2018-06-03T03:18:52.673Z,15.33
2018-06-03T03:19:52.710Z,15.30
2018-06-03T03:20:52.767Z,15.39
2018-06-03T03:21:52.832Z,15.31
2018-06-03T03:22:52.858Z,15.33
2018-06-03T03:23:52.906Z,15.38
2018-06-03T03:24:52.963Z,15.33
2018-06-03T03:25:53.036Z,15.30
2018-06-03T03:26:53.064Z,15.26
2018-06-03T03:27:53.107Z,15.30
2018-06-03T03:28:53.152Z,15.27
2018-06-03T03:29:53.664Z,15.17
2018-06-03T03:30:53.278Z,15.13
2018-06-03T03:31:53.303Z,15.05
2018-06-03T03:33:04.705Z,15.13
2018-06-03T03:33:53.401Z,15.17
2018-06-03T03:34:53.451Z,15.08
2018-06-03T03:35:53.530Z,15.15
2018-06-03T03:36:53.547Z,15.06
2018-06-03T03:37:53.596Z,15.08
2018-06-03T03:38:53.651Z,15.06
2018-06-03T03:39:53.694Z,15.08
2018-06-03T03:40:53.772Z,14.99
2018-06-03T03:41:53.793Z,14.99
2018-06-03T03:42:53.848Z,14.95
2018-06-03T03:43:53.916Z,15.01
2018-06-03T03:44:53.948Z,15.06
2018-06-03T03:45:53.990Z,15.12
2018-06-03T03:46:54.048Z,15.13
2018-06-03T03:47:54.093Z,15.11
2018-06-03T03:48:54.161Z,15.15
2018-06-03T03:49:54.187Z,15.06
2018-06-03T03:50:54.236Z,15.11
2018-06-03T03:51:54.294Z,15.15
2018-06-03T03:52:54.359Z,15.21
2018-06-03T03:53:54.388Z,15.23
2018-06-03T03:54:54.440Z,15.23
2018-06-03T03:55:54.485Z,15.17
2018-06-03T03:56:54.540Z,15.23
2018-06-03T03:57:54.616Z,15.20
2018-06-03T03:58:54.632Z,15.24
2018-06-03T03:59:54.683Z,15.26
2018-06-03T04:00:54.732Z,15.31
2018-06-03T04:01:54.798Z,15.28
2018-06-03T04:02:54.884Z,15.35
2018-06-03T04:03:54.881Z,15.35
2018-06-03T04:04:54.929Z,15.35
2018-06-03T04:05:54.978Z,15.38
2018-06-03T04:06:55.025Z,15.31
2018-06-03T04:07:55.537Z,15.39
2018-06-03T04:08:55.124Z,15.33
2018-06-03T04:09:55.172Z,15.51
2018-06-03T04:10:55.225Z,15.48
2018-06-03T04:11:55.272Z,15.52
2018-06-03T04:12:55.355Z,15.56
2018-06-03T04:13:55.373Z,15.54
2018-06-03T04:14:55.421Z,15.57
2018-06-03T04:15:55.471Z,15.57
2018-06-03T04:16:55.519Z,15.60
2018-06-03T04:17:55.606Z,15.67
2018-06-03T04:18:55.622Z,15.61
2018-06-03T04:19:55.669Z,15.66
2018-06-03T04:20:55.723Z,15.56
2018-06-03T04:21:55.772Z,15.67
2018-06-03T04:22:55.851Z,15.72
2018-06-03T04:23:55.864Z,15.68
2018-06-03T04:24:55.914Z,15.68
2018-06-03T04:25:55.966Z,15.61
2018-06-03T04:26:56.013Z,15.66
2018-06-03T04:27:56.095Z,15.74
2018-06-03T04:28:56.112Z,15.72
2018-06-03T04:29:56.162Z,15.70
2018-06-03T04:30:56.209Z,15.66
2018-06-03T04:31:56.286Z,15.67
2018-06-03T04:32:56.346Z,15.78
2018-06-03T04:33:56.358Z,15.68
2018-06-03T04:34:56.408Z,15.74
2018-06-03T04:35:56.460Z,15.79
2018-06-03T04:36:56.506Z,15.79
2018-06-03T04:37:56.587Z,15.82
2018-06-03T04:38:56.606Z,15.81
2018-06-03T04:39:56.661Z,15.85
2018-06-03T04:40:56.703Z,15.88
2018-06-03T04:41:56.753Z,15.86
2018-06-03T04:42:56.837Z,15.88
2018-06-03T04:43:56.861Z,15.93
2018-06-03T04:44:56.901Z,15.93
2018-06-03T04:45:56.953Z,15.94
2018-06-03T04:46:57.001Z,15.93
2018-06-03T04:47:57.093Z,15.97
2018-06-03T04:48:57.100Z,16.00
2018-06-03T04:49:57.150Z,16.00
2018-06-03T04:50:57.207Z,16.09
2018-06-03T04:51:57.252Z,16.03
2018-06-03T04:52:57.324Z,16.01
2018-06-03T04:53:57.348Z,16.04
2018-06-03T04:54:57.415Z,16.06
2018-06-03T04:55:57.448Z,16.07
2018-06-03T04:56:57.497Z,16.14
2018-06-03T04:57:57.573Z,16.14
2018-06-03T04:58:57.624Z,16.15
2018-06-03T04:59:57.646Z,16.15
2018-06-03T05:00:57.697Z,16.23
2018-06-03T05:01:57.744Z,16.25
2018-06-03T05:02:57.796Z,16.23
2018-06-03T05:03:57.877Z,16.30
2018-06-03T05:04:57.895Z,16.30
2018-06-03T05:05:57.943Z,16.33
2018-06-03T05:06:57.996Z,16.44
2018-06-03T05:07:58.045Z,16.44
2018-06-03T05:08:58.135Z,16.50
2018-06-03T05:09:58.146Z,16.53
2018-06-03T05:10:58.193Z,16.56
2018-06-03T05:11:58.243Z,16.55
2018-06-03T05:12:58.294Z,16.67
2018-06-03T05:13:58.368Z,16.65
2018-06-03T05:14:58.415Z,16.68
2018-06-03T05:15:58.441Z,16.81
2018-06-03T05:16:58.491Z,16.85
2018-06-03T05:17:58.540Z,16.85
2018-06-03T05:18:58.592Z,16.80
2018-06-03T05:19:58.683Z,16.83
2018-06-03T05:20:58.689Z,16.86
2018-06-03T05:21:58.743Z,16.86
2018-06-03T05:22:58.799Z,16.95
2018-06-03T05:23:58.843Z,16.96
2018-06-03T05:24:59.052Z,16.95
2018-06-03T05:25:58.939Z,17.03
2018-06-03T05:26:58.989Z,17.03
2018-06-03T05:27:59.040Z,17.06
2018-06-03T05:28:59.100Z,17.07
2018-06-03T05:29:59.166Z,17.15
2018-06-03T05:30:59.214Z,17.18
2018-06-03T05:31:59.247Z,17.22
2018-06-03T05:32:59.292Z,17.20
2018-06-03T05:33:59.341Z,17.29
2018-06-03T05:34:59.391Z,17.38
2018-06-03T05:35:59.463Z,17.47
2018-06-03T05:36:59.497Z,17.50
2018-06-03T05:37:59.543Z,17.62
2018-06-03T05:38:59.590Z,17.71
2018-06-03T05:39:59.640Z,17.69
2018-06-03T05:40:59.718Z,17.70
2018-06-03T05:41:59.743Z,17.69
2018-06-03T05:42:59.795Z,17.84
2018-06-03T05:43:59.839Z,17.99
2018-06-03T05:44:59.892Z,18.00
2018-06-03T05:45:59.963Z,18.04
2018-06-03T05:46:59.993Z,18.12
2018-06-03T05:48:00.039Z,18.13
2018-06-03T05:49:00.093Z,18.22
2018-06-03T05:50:00.140Z,18.22
2018-06-03T05:51:00.224Z,18.24
2018-06-03T05:52:00.241Z,18.24
2018-06-03T05:53:00.296Z,18.28
2018-06-03T05:54:00.341Z,18.28
2018-06-03T05:55:00.395Z,18.34
2018-06-03T05:56:00.468Z,18.33
2018-06-03T05:57:00.493Z,18.21
2018-06-03T05:58:00.578Z,18.28
2018-06-03T05:59:00.593Z,18.24
2018-06-03T06:00:00.645Z,18.33
2018-06-03T06:01:00.692Z,18.34
2018-06-03T06:02:00.747Z,18.39
2018-06-03T06:03:00.817Z,18.49
2018-06-03T06:04:00.845Z,18.54
2018-06-03T06:05:00.895Z,18.65
2018-06-03T06:06:00.953Z,18.70
2018-06-03T06:07:01.021Z,18.62
2018-06-03T06:08:01.045Z,18.67
2018-06-03T06:09:01.169Z,18.59
2018-06-03T06:10:01.149Z,18.67
2018-06-03T06:11:01.198Z,18.67
2018-06-03T06:12:01.269Z,18.77
2018-06-03T06:13:01.297Z,18.80
2018-06-03T06:14:01.348Z,18.72
2018-06-03T06:15:01.401Z,18.79
2018-06-03T06:16:01.450Z,18.77
2018-06-03T06:17:01.530Z,18.82
2018-06-03T06:18:01.549Z,18.82
2018-06-03T06:19:01.600Z,18.90
2018-06-03T06:20:01.653Z,18.94
2018-06-03T06:21:01.702Z,18.92
2018-06-03T06:22:01.776Z,19.02
2018-06-03T06:23:01.803Z,19.01
2018-06-03T06:24:01.878Z,19.13
2018-06-03T06:25:01.904Z,19.14
2018-06-03T06:26:01.957Z,19.23
2018-06-03T06:27:02.020Z,19.29
2018-06-03T06:28:02.056Z,19.47
2018-06-03T06:29:02.132Z,19.33
2018-06-03T06:30:02.155Z,19.40
2018-06-03T06:31:02.206Z,19.43
2018-06-03T06:32:02.258Z,19.38
2018-06-03T06:33:02.335Z,19.43
2018-06-03T06:34:02.359Z,19.47
2018-06-03T06:35:02.410Z,19.57
2018-06-03T06:36:02.467Z,19.51
2018-06-03T06:37:02.512Z,19.57
2018-06-03T06:38:02.593Z,19.60
2018-06-03T06:39:02.613Z,19.55
2018-06-03T06:40:02.665Z,19.53
2018-06-03T06:41:02.715Z,19.72
2018-06-03T06:42:02.765Z,19.69
2018-06-03T06:43:02.844Z,19.91
2018-06-03T06:44:02.873Z,20.21
2018-06-03T06:45:02.948Z,20.68
2018-06-03T06:46:02.973Z,21.24
2018-06-03T06:47:03.026Z,22.02
2018-06-03T06:48:03.078Z,22.87
2018-06-03T06:49:03.127Z,23.40
2018-06-03T06:50:03.219Z,23.65
2018-06-03T06:51:03.229Z,24.01
2018-06-03T06:52:03.284Z,24.08
2018-06-03T06:53:03.336Z,24.47
2018-06-03T06:54:03.386Z,25.06
2018-06-03T06:55:03.473Z,24.98
2018-06-03T06:56:03.492Z,24.91
2018-06-03T06:57:03.545Z,25.17
2018-06-03T06:58:03.595Z,25.38
2018-06-03T06:59:03.647Z,25.01
2018-06-03T07:00:03.743Z,25.07
2018-06-03T07:01:03.752Z,25.39
2018-06-03T07:02:03.804Z,25.74
2018-06-03T07:03:03.860Z,25.90
2018-06-03T07:04:03.911Z,26.01
2018-06-03T07:05:03.995Z,25.54
2018-06-03T07:06:04.020Z,25.37
2018-06-03T07:07:04.071Z,25.38
2018-06-03T07:08:04.129Z,25.34
2018-06-03T07:09:04.177Z,24.71
2018-06-03T07:10:04.255Z,25.20
2018-06-03T07:11:04.315Z,25.42
2018-06-03T07:12:04.342Z,25.69
2018-06-03T07:13:04.436Z,26.06
2018-06-03T07:14:04.445Z,26.24
2018-06-03T07:15:04.503Z,26.21
2018-06-03T07:16:04.577Z,25.97
2018-06-03T07:17:04.607Z,26.20
2018-06-03T07:18:04.661Z,26.21
2018-06-03T07:19:04.715Z,26.49
2018-06-03T07:20:04.771Z,26.99
2018-06-03T07:21:04.852Z,26.31
2018-06-03T07:22:04.884Z,26.12
2018-06-03T07:23:04.930Z,26.64
2018-06-03T07:24:04.984Z,26.65
2018-06-03T07:25:05.039Z,26.99
2018-06-03T07:26:05.125Z,27.36
2018-06-03T07:27:05.149Z,27.58
2018-06-03T07:28:05.205Z,27.96
2018-06-03T07:29:05.256Z,28.32
2018-06-03T07:30:05.313Z,28.11
2018-06-03T07:31:05.401Z,27.89
2018-06-03T07:32:05.442Z,28.11
2018-06-03T07:33:05.483Z,28.13
2018-06-03T07:34:05.532Z,28.32
2018-06-03T07:35:05.584Z,27.98
2018-06-03T07:36:05.663Z,27.73
2018-06-03T07:37:05.726Z,27.86
2018-06-03T07:38:05.752Z,28.10
2018-06-03T07:39:05.809Z,28.09
2018-06-03T07:40:05.859Z,27.91
2018-06-03T07:41:05.915Z,27.20
2018-06-03T07:42:06.009Z,27.16
2018-06-03T07:43:06.030Z,27.01
2018-06-03T07:44:06.083Z,26.83
2018-06-03T07:45:06.139Z,26.32
2018-06-03T07:46:06.191Z,26.31
2018-06-03T07:47:06.288Z,26.35
2018-06-03T07:48:06.307Z,25.98
2018-06-03T07:49:06.356Z,25.93
2018-06-03T07:50:06.413Z,25.56
2018-06-03T07:51:06.472Z,25.38
2018-06-03T07:52:06.565Z,25.28
2018-06-03T07:53:06.577Z,25.15
2018-06-03T07:54:06.633Z,25.05
2018-06-03T07:55:06.691Z,24.59
2018-06-03T07:56:06.743Z,24.13
2018-06-03T07:57:06.823Z,24.20
2018-06-03T07:58:06.880Z,24.41
2018-06-03T07:59:06.905Z,24.64
2018-06-03T08:00:06.962Z,24.57
2018-06-03T08:01:07.012Z,24.88
2018-06-03T08:02:07.072Z,24.82
2018-06-03T08:03:07.145Z,24.79
2018-06-03T08:04:07.177Z,24.68
2018-06-03T08:05:07.228Z,24.47
2018-06-03T08:06:07.281Z,25.09
2018-06-03T08:07:07.337Z,25.44
2018-06-03T08:08:07.422Z,25.39
2018-06-03T08:09:07.444Z,25.38
2018-06-03T08:10:07.501Z,25.59
2018-06-03T08:11:07.559Z,25.93
2018-06-03T08:12:07.608Z,25.99
2018-06-03T08:13:07.695Z,25.67
2018-06-03T08:14:07.717Z,26.06
2018-06-03T08:15:07.772Z,26.59
2018-06-03T08:16:07.824Z,26.91
2018-06-03T08:17:07.879Z,26.89
2018-06-03T08:18:07.982Z,27.06
2018-06-03T08:19:07.988Z,26.65
2018-06-03T08:20:08.042Z,26.24
2018-06-03T08:21:08.096Z,25.86
2018-06-03T08:22:08.152Z,25.39
2018-06-03T08:23:08.232Z,25.64
2018-06-03T08:24:08.286Z,26.27
2018-06-03T08:25:08.324Z,26.67
2018-06-03T08:26:08.376Z,26.28
2018-06-03T08:27:08.427Z,26.32
2018-06-03T08:28:08.483Z,25.87
2018-06-03T08:29:08.557Z,25.56
2018-06-03T08:30:08.589Z,25.77
2018-06-03T08:31:08.647Z,25.93
2018-06-03T08:32:08.700Z,25.87
2018-06-03T08:33:08.753Z,25.75
2018-06-03T08:34:08.835Z,25.75
2018-06-03T08:35:08.866Z,25.35
2018-06-03T08:36:08.919Z,25.52
2018-06-03T08:37:08.975Z,25.38
2018-06-03T08:38:09.031Z,25.15
2018-06-03T08:39:09.129Z,25.44
2018-06-03T08:40:09.140Z,25.75
2018-06-03T08:41:09.197Z,26.05
2018-06-03T08:42:09.250Z,26.72
2018-06-03T08:43:09.302Z,26.89
2018-06-03T08:44:09.415Z,27.01
2018-06-03T08:45:09.440Z,26.64
2018-06-03T08:46:09.469Z,26.37
2018-06-03T08:47:09.522Z,26.39
2018-06-03T08:48:09.581Z,26.59
2018-06-03T08:49:09.655Z,26.36
2018-06-03T08:50:09.715Z,26.12
2018-06-03T08:51:09.745Z,26.08
2018-06-03T08:52:09.815Z,25.89
2018-06-03T08:53:09.858Z,25.27
2018-06-03T08:54:09.914Z,24.77
2018-06-03T08:55:10.002Z,24.88
2018-06-03T08:56:10.026Z,25.22
2018-06-03T08:57:10.085Z,25.61
2018-06-03T08:58:10.138Z,25.69
2018-06-03T08:59:10.188Z,25.91
2018-06-03T09:00:10.286Z,25.10
2018-06-03T09:01:10.300Z,25.24
2018-06-03T09:02:10.358Z,25.44
2018-06-03T09:03:10.412Z,25.56
2018-06-03T09:04:10.464Z,25.62
2018-06-03T09:05:10.548Z,25.69
2018-06-03T09:06:10.600Z,25.94
2018-06-03T09:07:10.630Z,26.09
2018-06-03T09:08:10.689Z,26.28
2018-06-03T09:09:10.743Z,26.61
2018-06-03T09:10:10.800Z,26.32
2018-06-03T09:11:10.880Z,25.97
2018-06-03T09:12:10.912Z,25.98
2018-06-03T09:13:10.968Z,25.67
2018-06-03T09:14:11.019Z,24.82
2018-06-03T09:15:11.083Z,24.76
2018-06-03T09:16:11.157Z,24.37
2018-06-03T09:17:11.189Z,24.04
2018-06-03T09:18:11.240Z,24.53
2018-06-03T09:19:11.303Z,25.02
2018-06-03T09:20:11.353Z,25.24
2018-06-03T09:21:11.457Z,25.52
2018-06-03T09:22:11.464Z,25.87
2018-06-03T09:23:11.523Z,25.80
2018-06-03T09:24:11.580Z,25.06
2018-06-03T09:25:11.666Z,25.05
2018-06-03T09:26:11.721Z,25.15
2018-06-03T09:27:11.741Z,25.15
2018-06-03T09:28:11.807Z,24.85
2018-06-03T09:29:11.854Z,24.39
2018-06-03T09:30:11.914Z,24.14
2018-06-03T09:31:11.993Z,24.49
2018-06-03T09:32:12.057Z,25.09
2018-06-03T09:33:12.074Z,25.54
2018-06-03T09:34:12.133Z,25.86
2018-06-03T09:35:12.186Z,25.87
2018-06-03T09:36:12.246Z,25.83
2018-06-03T09:37:12.334Z,25.98
2018-06-03T09:38:12.351Z,26.15
2018-06-03T09:39:12.409Z,26.01
2018-06-03T09:40:12.470Z,25.02
2018-06-03T09:41:12.521Z,24.67
2018-06-03T09:42:12.607Z,24.53
2018-06-03T09:43:12.631Z,24.50
2018-06-03T09:44:12.695Z,24.90
2018-06-03T09:45:13.615Z,25.39
2018-06-03T09:46:12.809Z,25.72
2018-06-03T09:47:12.885Z,26.11
2018-06-03T09:48:12.916Z,25.94
2018-06-03T09:49:12.965Z,25.22
2018-06-03T09:50:13.023Z,25.37
2018-06-03T09:51:13.079Z,25.16
2018-06-03T09:52:13.157Z,24.87
2018-06-03T09:53:13.277Z,25.06
2018-06-03T09:54:13.272Z,25.24
2018-06-03T09:55:13.304Z,25.37
2018-06-03T09:56:13.357Z,25.44
2018-06-03T09:57:13.439Z,25.84
2018-06-03T09:58:13.468Z,25.97
2018-06-03T09:59:13.526Z,26.11
2018-06-03T10:00:13.609Z,26.11
2018-06-03T10:01:13.637Z,26.24
2018-06-03T10:02:13.692Z,26.15
2018-06-03T10:03:13.748Z,26.31
2018-06-03T10:04:13.807Z,26.44
2018-06-03T10:05:13.885Z,26.59
2018-06-03T10:06:13.918Z,26.62
2018-06-03T10:07:13.976Z,26.37
2018-06-03T10:08:14.032Z,25.97
2018-06-03T10:09:14.089Z,25.91
2018-06-03T10:10:14.241Z,26.15
2018-06-03T10:11:14.228Z,26.15
2018-06-03T10:12:14.255Z,26.18
2018-06-03T10:13:14.324Z,26.05
2018-06-03T10:14:14.369Z,26.24
2018-06-03T10:15:14.463Z,26.35
2018-06-03T10:16:14.550Z,26.67
2018-06-03T10:17:14.540Z,26.84
2018-06-03T10:18:14.596Z,27.06
2018-06-03T10:19:14.651Z,27.26
2018-06-03T10:20:14.739Z,27.10
2018-06-03T10:21:14.803Z,27.05
2018-06-03T10:22:14.850Z,27.06
2018-06-03T10:23:14.886Z,27.13
2018-06-03T10:24:14.940Z,27.13
2018-06-03T10:25:14.989Z,27.32
2018-06-03T10:26:15.072Z,27.61
2018-06-03T10:27:15.104Z,27.85
2018-06-03T10:28:15.168Z,27.86
2018-06-03T10:29:15.218Z,27.92
2018-06-03T10:30:15.275Z,27.64
2018-06-03T10:31:15.365Z,27.51
2018-06-03T10:32:15.388Z,27.64
2018-06-03T10:33:15.446Z,27.59
2018-06-03T10:34:15.505Z,27.80
2018-06-03T10:35:15.560Z,27.94
2018-06-03T10:36:15.662Z,28.31
2018-06-03T10:37:15.677Z,28.19
2018-06-03T10:38:15.738Z,28.28
2018-06-03T10:39:15.791Z,28.36
2018-06-03T10:40:15.852Z,28.48
2018-06-03T10:41:15.938Z,28.60
2018-06-03T10:42:15.964Z,28.78
2018-06-03T10:43:16.024Z,28.91
2018-06-03T10:44:16.082Z,29.00
2018-06-03T10:45:16.141Z,29.06
2018-06-03T10:46:16.221Z,28.97
2018-06-03T10:47:16.280Z,28.88
2018-06-03T10:48:16.312Z,28.93
2018-06-03T10:49:16.373Z,29.00
2018-06-03T10:50:16.431Z,28.81
2018-06-03T10:51:16.491Z,28.84
2018-06-03T10:52:16.571Z,28.65
2018-06-03T10:53:16.607Z,28.51
2018-06-03T10:54:16.670Z,28.35
2018-06-03T10:55:16.725Z,28.35
2018-06-03T10:56:16.783Z,28.32
2018-06-03T10:57:16.867Z,28.32
2018-06-03T10:58:16.900Z,28.14
2018-06-03T10:59:17.003Z,28.22
2018-06-03T11:00:17.014Z,28.33
2018-06-03T11:01:17.075Z,28.44
2018-06-03T11:02:17.130Z,28.58
2018-06-03T11:03:17.190Z,28.54
2018-06-03T11:04:17.284Z,28.54
2018-06-03T11:05:17.309Z,28.69
2018-06-03T11:06:17.365Z,28.75
2018-06-03T11:07:17.424Z,28.80
2018-06-03T11:08:17.486Z,28.82
2018-06-03T11:09:17.566Z,28.69
2018-06-03T11:10:17.597Z,28.56
2018-06-03T11:11:17.659Z,28.33
2018-06-03T11:12:17.715Z,28.32
2018-06-03T11:13:17.804Z,28.23
2018-06-03T11:14:17.834Z,28.32
2018-06-03T11:15:17.895Z,28.43
2018-06-03T11:16:17.948Z,28.54
2018-06-03T11:17:18.009Z,28.46
2018-06-03T11:18:18.090Z,28.65
2018-06-03T11:19:18.127Z,28.72
2018-06-03T11:20:18.181Z,28.80
2018-06-03T11:21:18.243Z,28.97
2018-06-03T11:22:18.300Z,28.90
2018-06-03T11:23:18.422Z,29.10
2018-06-03T11:24:18.432Z,29.43
2018-06-03T11:25:18.477Z,29.53
2018-06-03T11:26:18.534Z,29.70
2018-06-03T11:27:18.594Z,29.87
2018-06-03T11:28:18.674Z,30.15
2018-06-03T11:29:18.711Z,30.26
2018-06-03T11:30:18.768Z,30.36
2018-06-03T11:31:18.829Z,30.53
2018-06-03T11:32:18.940Z,30.59
2018-06-03T11:33:18.946Z,30.76
2018-06-03T11:34:19.009Z,30.86
2018-06-03T11:35:19.064Z,31.08
2018-06-03T11:36:19.121Z,31.27
2018-06-03T11:37:19.206Z,31.57
2018-06-03T11:38:19.240Z,31.73
2018-06-03T11:39:19.323Z,31.88
2018-06-03T11:40:19.362Z,32.06
2018-06-03T11:41:19.422Z,32.06
2018-06-03T11:42:19.480Z,32.00
2018-06-03T11:43:19.568Z,31.70
2018-06-03T11:44:19.602Z,31.48
2018-06-03T11:45:19.661Z,31.73
2018-06-03T11:46:19.751Z,31.72
2018-06-03T11:47:19.783Z,31.67
2018-06-03T11:48:19.876Z,31.73
2018-06-03T11:49:19.936Z,31.65
2018-06-03T11:50:19.966Z,31.21
2018-06-03T11:51:20.025Z,31.21
2018-06-03T11:52:20.085Z,31.18
2018-06-03T11:53:20.147Z,31.17
2018-06-03T11:54:20.231Z,31.31
2018-06-03T11:55:20.269Z,31.24
2018-06-03T11:56:20.333Z,30.94
2018-06-03T11:57:20.394Z,30.86
2018-06-03T11:58:20.449Z,30.78
2018-06-03T11:59:20.547Z,30.83
2018-06-03T12:00:20.576Z,30.89
2018-06-03T12:01:20.630Z,31.08
2018-06-03T12:02:20.694Z,31.06
2018-06-03T12:03:20.752Z,31.04
2018-06-03T12:04:20.854Z,31.11
2018-06-03T12:05:20.877Z,31.02
2018-06-03T12:06:20.935Z,30.69
2018-06-03T12:07:20.997Z,30.86
2018-06-03T12:08:21.688Z,30.89
2018-06-03T12:09:21.138Z,30.94
2018-06-03T12:10:21.210Z,31.04
2018-06-03T12:11:21.240Z,31.02
2018-06-03T12:12:21.301Z,30.84
2018-06-03T12:13:21.359Z,30.80
2018-06-03T12:14:21.450Z,30.72
2018-06-03T12:15:21.495Z,30.54
2018-06-03T12:16:21.542Z,30.62
2018-06-03T12:17:21.599Z,30.59
2018-06-03T12:18:21.661Z,30.50
2018-06-03T12:19:21.746Z,30.12
2018-06-03T12:20:21.803Z,29.99
2018-06-03T12:21:21.842Z,29.84
2018-06-03T12:22:21.901Z,29.87
2018-06-03T12:23:21.961Z,29.89
2018-06-03T12:24:22.018Z,29.97
2018-06-03T12:25:22.102Z,30.08
2018-06-03T12:26:22.192Z,30.21
2018-06-03T12:27:22.199Z,30.27
2018-06-03T12:28:22.301Z,30.49
2018-06-03T12:29:22.321Z,30.68
2018-06-03T12:30:22.379Z,30.74
2018-06-03T12:31:22.471Z,30.87
2018-06-03T12:32:22.495Z,30.74
2018-06-03T12:33:22.566Z,30.69
2018-06-03T12:34:22.618Z,30.75
2018-06-03T12:35:22.677Z,30.78
2018-06-03T12:36:22.760Z,30.83
2018-06-03T12:37:22.798Z,30.96
2018-06-03T12:38:22.859Z,30.96
2018-06-03T12:39:22.918Z,31.06
2018-06-03T12:40:22.976Z,31.23
2018-06-03T12:41:23.059Z,31.31
2018-06-03T12:42:23.098Z,31.46
2018-06-03T12:43:23.156Z,31.70
2018-06-03T12:44:23.217Z,31.98
2018-06-03T12:45:23.277Z,32.00
2018-06-03T12:46:23.359Z,32.29
2018-06-03T12:47:23.421Z,32.25
2018-06-03T12:48:23.460Z,32.47
2018-06-03T12:49:23.521Z,32.44
2018-06-03T12:50:23.580Z,32.42
2018-06-03T12:51:23.644Z,32.47
2018-06-03T12:52:23.737Z,32.43
2018-06-03T12:53:23.765Z,32.43